Hestrud (Nord, France) - 208 m
Donnes mto: Actuelle mardi, 19/06/2018 20:05
Date Horaire Temp Out Temp. E. min Temp. E. max Temp. Sol 1 Hum Out Hum. Sol 1 Press Rain Wind Dir Dir Solar Ev.Tr. UV Hi Solar Rad Dew Point Windchill Wind (Gust)
19/06/2018 20:05 19,0 C 19,0 C 19,0 C 18,9 C 88 % 200 cb 1023,8 hPa 0,0 mm 8,0 km/h (2 Bft) O-SO 247 0 min 0,051 mm 0,0 UV-I 44 W/m 17,0 C 18,3 C 9,7 km/h (2 Bft)
19/06/2018 19:05 19,2 C 19,2 C 19,2 C 19,4 C 87 % 200 cb 1024,1 hPa 0,0 mm 3,2 km/h (1 Bft) O-SO 247 0 min 0,076 mm 0,0 UV-I 74 W/m 17,0 C 19,2 C 4,8 km/h (1 Bft)
19/06/2018 18:05 19,3 C 19,3 C 19,3 C 20,0 C 87 % 200 cb 1024,2 hPa 0,0 mm 8,0 km/h (2 Bft) S-SO 202 31 min 0,102 mm 0,9 UV-I 138 W/m 17,1 C 18,6 C 11,3 km/h (2 Bft)
19/06/2018 17:05 19,2 C 19,2 C 19,2 C 19,4 C 88 % 200 cb 1024,4 hPa 0,0 mm 4,8 km/h (1 Bft) SO 225 33 min 0,102 mm 0,7 UV-I 91 W/m 17,2 C 19,2 C 8,0 km/h (2 Bft)
19/06/2018 16:05 18,8 C 18,8 C 18,8 C 18,9 C 88 % 200 cb 1024,6 hPa 0,0 mm 6,4 km/h (2 Bft) O-SO 247 29 min 0,102 mm 0,6 UV-I 79 W/m 16,8 C 18,8 C 9,7 km/h (2 Bft)
19/06/2018 15:05 18,9 C 18,9 C 18,9 C 19,4 C 89 % 200 cb 1024,6 hPa 0,0 mm 3,2 km/h (1 Bft) E-NE 67 52 min 0,127 mm 2,1 UV-I 229 W/m 17,0 C 18,9 C 8,0 km/h (2 Bft)
19/06/2018 14:05 18,5 C 18,5 C 18,5 C 18,9 C 90 % 200 cb 1024,7 hPa 0,0 mm 3,2 km/h (1 Bft) O-SO 247 47 min 0,152 mm 1,3 UV-I 169 W/m 16,8 C 18,5 C 6,4 km/h (2 Bft)
19/06/2018 13:05 18,3 C 18,2 C 18,3 C 19,4 C 91 % 200 cb 1024,8 hPa 0,0 mm 8,0 km/h (2 Bft) O-SO 247 60 min 0,178 mm 3,7 UV-I 418 W/m 16,8 C 17,6 C 9,7 km/h (2 Bft)
19/06/2018 12:05 18,2 C 18,2 C 18,2 C 18,9 C 92 % 200 cb 1024,6 hPa 0,0 mm 12,9 km/h (3 Bft) O-SO 247 60 min 0,203 mm 2,4 UV-I 299 W/m 16,9 C 15,7 C 16,1 km/h (3 Bft)
19/06/2018 11:05 17,3 C 17,3 C 17,3 C 18,3 C 96 % 200 cb 1024,4 hPa 0,2 mm 8,0 km/h (2 Bft) O-SO 247 56 min 0,127 mm 1,8 UV-I 257 W/m 16,7 C 16,5 C 14,5 km/h (3 Bft)
19/06/2018 10:05 17,1 C 17,0 C 17,1 C 17,8 C 96 % 200 cb 1024,4 hPa 0,0 mm 12,9 km/h (3 Bft) SO 225 54 min 0,102 mm 1,9 UV-I 269 W/m 16,5 C 14,4 C 16,1 km/h (3 Bft)
19/06/2018 09:05 16,0 C 16,0 C 16,0 C 16,7 C 98 % 200 cb 1024,2 hPa 0,0 mm 8,0 km/h (2 Bft) O-SO 247 4 min 0,076 mm 0,5 UV-I 100 W/m 15,7 C 15,2 C 11,3 km/h (2 Bft)
19/06/2018 08:05 15,3 C 15,2 C 15,3 C 15,6 C 97 % 200 cb 1023,9 hPa 0,0 mm 9,7 km/h (2 Bft) SO 225 0 min 0,025 mm 0,0 UV-I 95 W/m 14,8 C 13,6 C 14,5 km/h (3 Bft)
19/06/2018 07:05 14,8 C 14,8 C 14,8 C 15,0 C 97 % 200 cb 1023,6 hPa 0,0 mm 11,3 km/h (2 Bft) SO 225 0 min 0,000 mm 0,0 UV-I 28 W/m 14,3 C 12,3 C 12,9 km/h (3 Bft)
19/06/2018 06:05 14,7 C 14,7 C 14,7 C 15,0 C 96 % 200 cb 1023,6 hPa 0,0 mm 8,0 km/h (2 Bft) SO 225 0 min 0,000 mm 0,0 UV-I 5 W/m 14,1 C 13,8 C 12,9 km/h (3 Bft)
19/06/2018 05:05 14,4 C 14,4 C 14,4 C 14,4 C 97 % 200 cb 1023,1 hPa 0,0 mm 9,7 km/h (2 Bft) O-SO 247 0 min 0,000 mm 0,0 UV-I 0 W/m 13,9 C 12,6 C 11,3 km/h (2 Bft)
19/06/2018 04:05 14,2 C 14,2 C 14,2 C 14,4 C 95 % 200 cb 1022,5 hPa 0,0 mm 8,0 km/h (2 Bft) SO 225 0 min 0,000 mm 0,0 UV-I 0 W/m 13,4 C 13,3 C 11,3 km/h (2 Bft)
19/06/2018 03:05 14,1 C 14,1 C 14,1 C 14,4 C 95 % 200 cb 1022,7 hPa 0,0 mm 6,4 km/h (2 Bft) O-SO 247 0 min 0,000 mm 0,0 UV-I 0 W/m 13,3 C 14,1 C 8,0 km/h (2 Bft)
19/06/2018 02:05 13,8 C 13,8 C 13,8 C 13,9 C 94 % 200 cb 1022,7 hPa 0,0 mm 6,4 km/h (2 Bft) O-SO 247 0 min 0,000 mm 0,0 UV-I 0 W/m 12,9 C 13,8 C 11,3 km/h (2 Bft)
19/06/2018 01:05 13,8 C 13,8 C 13,9 C 13,9 C 91 % 200 cb 1022,6 hPa 0,0 mm 12,9 km/h (3 Bft) O-SO 247 0 min 0,025 mm 0,0 UV-I 0 W/m 12,4 C 10,5 C 16,1 km/h (3 Bft)
19/06/2018 00:05 14,7 C 14,7 C 14,7 C 14,4 C 92 % 200 cb 1022,6 hPa 0,0 mm 4,8 km/h (1 Bft) O-SO 247 0 min 0,025 mm 0,0 UV-I 0 W/m 13,4 C 14,7 C 9,7 km/h (2 Bft)
18/06/2018 23:05 15,3 C 15,3 C 15,3 C 15,0 C 88 % 200 cb 1022,4 hPa 0,0 mm 6,4 km/h (2 Bft) O-SO 247 0 min 0,000 mm 0,0 UV-I 0 W/m 13,3 C 15,3 C 11,3 km/h (2 Bft)
18/06/2018 22:05 16,6 C 16,6 C 16,7 C 16,1 C 83 % 200 cb 1021,6 hPa 0,0 mm 6,4 km/h (2 Bft) O-SO 247 0 min 0,025 mm 0,0 UV-I 0 W/m 13,7 C 16,6 C 8,0 km/h (2 Bft)
18/06/2018 21:05 18,2 C 18,2 C 18,3 C 17,8 C 78 % 200 cb 1021,2 hPa 0,0 mm 8,0 km/h (2 Bft) O-SO 247 0 min 0,076 mm 0,0 UV-I 19 W/m 14,3 C 17,5 C 12,9 km/h (3 Bft)
18/06/2018 21:00 18,3 C 18,3 C 18,4 C 17,8 C 78 % 200 cb 1021,2 hPa 0,0 mm 9,7 km/h (2 Bft) O-SO 247 0 min 0,076 mm 0,0 UV-I 35 W/m 14,4 C 16,9 C 12,9 km/h (3 Bft)
_ Min-Heure 01:17 01:17 01:18 00:31 21:00 21:00 21:00 - 00:02 - - - - - - 01:05 01:33 00:02
Minimum _ 13,7 C 13,7 C 13,7 C 13,9 C 78 % 200 cb 1021,2 hPa - 0,0 km/h (0 Bft) - - - - - - 12,4 C 10,4 C 0,0 km/h (0 Bft)
_ Max-Heure 18:14 17:57 18:14 16:45 08:08 21:00 13:14 10:55 11:28 - - 08:41 12:00 11:49 11:44 11:52 18:00 00:58
Maximum _ 19,4 C 19,3 C 19,4 C 20,0 C 98 % 200 cb 1024,9 hPa 0,2 mm 16,1 km/h
O-SO (3 Bft)
- - 1 min 0,203 mm 6,1 UV-I 661 W/m 17,7 C 19,3 C 20,9 km/h
SO (4 Bft)
Moyenne _ 16,7 C 16,7 C 16,7 C 16,9 C 91 % 200 cb 1023,4 hPa #0,2 mm 7,8 km/h (2 Bft) O-SO - #7:06 h #1,473 mm 1,6 UV-I 119 W/m 15,1 C 15,8 C 11,1 km/h (2 Bft)